createdAt,value
2019-01-26T00:01:04.726Z,58.27
2019-01-26T00:03:36.282Z,75.80
2019-01-26T00:06:08.110Z,73.07
2019-01-26T00:08:39.430Z,52.97
2019-01-26T00:11:10.953Z,93.57
2019-01-26T00:13:42.354Z,78.20
2019-01-26T00:16:13.717Z,83.77
2019-01-26T00:18:45.135Z,79.97
2019-01-26T00:21:16.556Z,120.97
2019-01-26T00:23:47.870Z,95.13
2019-01-26T00:26:19.179Z,104.70
2019-01-26T00:28:50.393Z,79.37
2019-01-26T00:31:21.760Z,112.80
2019-01-26T00:33:53.305Z,98.77
2019-01-26T00:36:24.569Z,124.90
2019-01-26T00:38:55.864Z,117.73
2019-01-26T00:41:27.109Z,94.73
2019-01-26T00:43:58.386Z,126.63
2019-01-26T00:46:29.636Z,116.90
2019-01-26T00:49:00.887Z,117.53
2019-01-26T00:51:32.174Z,96.20
2019-01-26T00:54:03.463Z,109.53
2019-01-26T00:56:34.830Z,92.60
2019-01-26T00:59:06.548Z,99.13
2019-01-26T01:01:37.833Z,104.97
2019-01-26T01:04:09.212Z,86.47
2019-01-26T01:06:40.628Z,81.37
2019-01-26T01:09:16.977Z,85.47
2019-01-26T01:11:57.590Z,93.27
2019-01-26T01:14:38.882Z,77.87
2019-01-26T01:17:24.338Z,98.13
2019-01-26T01:20:01.087Z,85.13
2019-01-26T01:22:33.501Z,77.67
2019-01-26T01:25:05.750Z,101.53
2019-01-26T01:27:37.110Z,99.10
2019-01-26T01:30:11.445Z,121.13
2019-01-26T01:32:42.786Z,106.00
2019-01-26T01:35:14.286Z,108.13
2019-01-26T01:37:45.593Z,106.43
2019-01-26T01:40:17.502Z,78.10
2019-01-26T01:42:48.834Z,102.43
2019-01-26T01:45:21.205Z,104.77
2019-01-26T01:47:52.629Z,90.13
2019-01-26T01:50:23.988Z,95.13
2019-01-26T01:52:55.289Z,94.13
2019-01-26T01:55:26.597Z,118.07
2019-01-26T01:57:57.887Z,113.30
2019-01-26T02:00:29.643Z,102.53
2019-01-26T02:03:01.046Z,109.73
2019-01-26T02:05:32.438Z,124.70
2019-01-26T02:08:03.790Z,131.87
2019-01-26T02:10:35.343Z,120.47
2019-01-26T02:13:06.957Z,142.50
2019-01-26T02:15:41.606Z,124.47
2019-01-26T02:18:12.894Z,128.17
2019-01-26T02:20:44.175Z,128.70
2019-01-26T02:23:15.510Z,153.37
2019-01-26T02:25:46.719Z,134.77
2019-01-26T02:28:18.038Z,140.83
2019-01-26T02:30:49.504Z,148.00
2019-01-26T02:33:20.902Z,127.13
2019-01-26T02:35:52.125Z,154.33
2019-01-26T02:38:25.442Z,154.57
2019-01-26T02:40:56.838Z,140.77
2019-01-26T02:43:28.192Z,181.07
2019-01-26T02:45:59.687Z,170.00
2019-01-26T02:48:31.072Z,159.87
2019-01-26T02:51:02.363Z,174.00
2019-01-26T02:53:33.711Z,138.43
2019-01-26T02:56:04.997Z,173.30
2019-01-26T02:58:36.308Z,174.43
2019-01-26T03:01:07.824Z,126.63
2019-01-26T03:03:40.783Z,211.20
2019-01-26T03:06:12.261Z,180.70
2019-01-26T03:08:43.535Z,158.00
2019-01-26T03:11:14.899Z,179.03
2019-01-26T03:13:46.245Z,189.80
2019-01-26T03:16:17.589Z,192.57
2019-01-26T03:18:48.866Z,201.97
2019-01-26T03:21:20.226Z,204.63
2019-01-26T03:23:51.683Z,225.40
2019-01-26T03:26:23.278Z,243.53
2019-01-26T03:28:54.554Z,196.00
2019-01-26T03:31:25.850Z,222.87
2019-01-26T03:33:57.298Z,174.30
2019-01-26T03:36:28.744Z,178.43
2019-01-26T03:39:00.111Z,175.80
2019-01-26T03:41:31.659Z,181.33
2019-01-26T03:44:03.058Z,175.43
2019-01-26T03:46:34.358Z,161.97
2019-01-26T03:49:05.803Z,157.67
2019-01-26T03:51:37.117Z,192.23
2019-01-26T03:54:08.503Z,164.83
2019-01-26T03:56:39.807Z,148.97
2019-01-26T03:59:11.188Z,170.63
2019-01-26T04:01:43.653Z,162.73
2019-01-26T04:04:15.029Z,146.90
2019-01-26T04:06:46.394Z,160.20
2019-01-26T04:09:17.706Z,147.60
2019-01-26T04:11:48.935Z,161.63
2019-01-26T04:14:20.402Z,147.70
2019-01-26T04:16:51.740Z,158.50
2019-01-26T04:19:23.087Z,147.10
2019-01-26T04:21:54.459Z,173.10
2019-01-26T04:24:25.734Z,148.60
2019-01-26T04:26:57.009Z,158.07
2019-01-26T04:29:28.277Z,163.37
2019-01-26T04:31:59.513Z,129.53
2019-01-26T04:34:30.813Z,152.73
2019-01-26T04:37:02.013Z,158.43
2019-01-26T04:39:33.321Z,142.00
2019-01-26T04:42:04.646Z,154.67
2019-01-26T04:44:35.907Z,149.10
2019-01-26T04:47:07.164Z,127.53
2019-01-26T04:49:38.485Z,142.10
2019-01-26T04:52:09.882Z,132.80
2019-01-26T04:54:41.106Z,118.30
2019-01-26T04:57:12.351Z,142.53
2019-01-26T04:59:43.571Z,132.33
2019-01-26T05:02:15.010Z,145.40
2019-01-26T05:04:46.380Z,156.37
2019-01-26T05:07:17.779Z,138.80
2019-01-26T05:09:49.087Z,133.07
2019-01-26T05:12:20.391Z,150.87
2019-01-26T05:14:51.795Z,145.40
2019-01-26T05:17:23.064Z,146.43
2019-01-26T05:19:54.277Z,177.57
2019-01-26T05:22:25.586Z,152.20
2019-01-26T05:24:56.822Z,156.83
2019-01-26T05:27:28.170Z,138.87
2019-01-26T05:29:59.501Z,164.43
2019-01-26T05:32:30.831Z,130.03
2019-01-26T05:35:02.142Z,117.67
2019-01-26T05:37:33.431Z,132.57
2019-01-26T05:40:05.061Z,129.10
2019-01-26T05:42:36.360Z,157.27
2019-01-26T05:45:10.585Z,120.17
2019-01-26T05:47:48.096Z,141.83
2019-01-26T05:50:22.613Z,135.40
2019-01-26T05:52:54.336Z,135.43
2019-01-26T05:55:25.770Z,164.40
2019-01-26T05:57:57.169Z,121.67
2019-01-26T06:00:36.685Z,122.90
2019-01-26T06:03:08.089Z,132.80
2019-01-26T06:05:39.368Z,139.20
2019-01-26T06:08:10.791Z,132.20
2019-01-26T06:10:42.214Z,125.23
2019-01-26T06:13:13.567Z,134.90
2019-01-26T06:15:44.908Z,124.80
2019-01-26T06:18:17.093Z,129.73
2019-01-26T06:20:48.540Z,128.67
2019-01-26T06:23:19.779Z,129.63
2019-01-26T06:25:51.152Z,118.70
2019-01-26T06:28:22.371Z,131.63
2019-01-26T06:30:53.709Z,143.30
2019-01-26T06:33:25.053Z,139.30
2019-01-26T06:35:56.318Z,108.67
2019-01-26T06:38:27.574Z,125.63
2019-01-26T06:40:58.794Z,104.87
2019-01-26T06:43:30.132Z,120.03
2019-01-26T06:46:01.327Z,116.80
2019-01-26T06:48:32.604Z,125.60
2019-01-26T06:51:03.918Z,138.10
2019-01-26T06:53:35.191Z,123.43
2019-01-26T06:56:06.667Z,128.83
2019-01-26T06:58:37.985Z,105.60
2019-01-26T07:01:09.255Z,111.20
2019-01-26T07:03:40.577Z,124.40
2019-01-26T07:06:22.232Z,122.87
2019-01-26T07:08:53.523Z,124.17
2019-01-26T07:11:25.077Z,131.50
2019-01-26T07:13:57.919Z,119.87
2019-01-26T07:16:29.266Z,127.60
2019-01-26T07:19:00.615Z,100.80
2019-01-26T07:21:31.994Z,122.00
2019-01-26T07:24:03.261Z,143.17
2019-01-26T07:26:41.994Z,102.50
2019-01-26T07:29:14.306Z,119.20
2019-01-26T07:31:45.731Z,117.30
2019-01-26T07:34:17.112Z,106.63
2019-01-26T07:36:48.331Z,125.13
2019-01-26T07:39:20.167Z,133.13
2019-01-26T07:41:52.002Z,111.13
2019-01-26T07:44:23.392Z,125.97
2019-01-26T07:46:54.747Z,115.40
2019-01-26T07:49:26.072Z,125.57
2019-01-26T07:51:57.397Z,102.70
2019-01-26T07:54:28.562Z,109.50
2019-01-26T07:57:01.013Z,111.10
2019-01-26T07:59:32.359Z,105.60
2019-01-26T08:02:03.709Z,110.77
2019-01-26T08:04:35.145Z,96.53
2019-01-26T08:07:16.238Z,92.50
2019-01-26T08:09:47.543Z,100.37
2019-01-26T08:12:18.823Z,100.73
2019-01-26T08:14:50.088Z,93.23
2019-01-26T08:17:21.326Z,87.77
2019-01-26T08:19:52.515Z,91.93
2019-01-26T08:22:23.864Z,92.87
2019-01-26T08:24:56.967Z,100.27
2019-01-26T08:27:28.302Z,103.97
2019-01-26T08:29:59.619Z,101.90
2019-01-26T08:32:30.909Z,110.27
2019-01-26T08:35:02.243Z,98.10
2019-01-26T08:37:33.541Z,104.60
2019-01-26T08:40:05.224Z,106.80
2019-01-26T08:42:36.598Z,100.13
2019-01-26T08:45:11.214Z,95.00
2019-01-26T08:47:45.312Z,111.10
2019-01-26T08:50:26.329Z,104.20
2019-01-26T08:53:02.178Z,110.70
2019-01-26T08:55:37.696Z,107.80
2019-01-26T08:58:09.119Z,129.63
2019-01-26T09:00:40.390Z,109.90
2019-01-26T09:03:42.807Z,93.80
2019-01-26T09:06:39.026Z,79.77
2019-01-26T09:09:15.267Z,98.17
2019-01-26T09:11:46.856Z,92.47
2019-01-26T09:14:18.117Z,88.87
2019-01-26T09:16:49.379Z,89.67
2019-01-26T09:19:20.757Z,90.03
2019-01-26T09:21:52.182Z,112.23
2019-01-26T09:24:23.493Z,129.40
2019-01-26T09:26:54.797Z,118.40
2019-01-26T09:29:26.133Z,118.00
2019-01-26T09:31:57.377Z,112.40
2019-01-26T09:34:28.874Z,120.23
2019-01-26T09:37:00.247Z,132.60
2019-01-26T09:39:31.549Z,110.90
2019-01-26T09:42:02.983Z,110.70
2019-01-26T09:44:34.229Z,93.70
2019-01-26T09:47:05.595Z,101.83
2019-01-26T09:49:36.975Z,121.20
2019-01-26T09:52:26.890Z,98.60
2019-01-26T09:54:58.273Z,117.27
2019-01-26T09:57:30.204Z,110.50
2019-01-26T10:00:01.553Z,96.43
2019-01-26T10:02:32.802Z,107.67
2019-01-26T10:05:04.204Z,101.00
2019-01-26T10:07:35.541Z,105.10
2019-01-26T10:10:07.749Z,110.60
2019-01-26T10:12:39.150Z,102.23
2019-01-26T10:15:13.701Z,111.57
2019-01-26T10:17:46.186Z,123.77
2019-01-26T10:20:27.101Z,102.43
2019-01-26T10:22:58.543Z,98.77
2019-01-26T10:25:29.681Z,108.27
2019-01-26T10:28:01.281Z,101.20
2019-01-26T10:30:39.767Z,103.03
2019-01-26T10:33:11.268Z,83.80
2019-01-26T10:36:16.831Z,118.40
2019-01-26T10:39:08.542Z,121.10
2019-01-26T10:41:46.178Z,103.60
2019-01-26T10:44:32.457Z,106.47
2019-01-26T10:47:03.826Z,118.97
2019-01-26T10:49:35.216Z,95.80
2019-01-26T10:52:06.892Z,103.97
2019-01-26T10:54:38.246Z,105.10
2019-01-26T10:57:09.806Z,108.03
2019-01-26T10:59:41.161Z,112.23
2019-01-26T11:02:12.700Z,97.67
2019-01-26T11:04:44.057Z,87.80
2019-01-26T11:07:15.892Z,102.97
2019-01-26T11:09:47.117Z,95.43
2019-01-26T11:12:20.001Z,75.77
2019-01-26T11:14:51.386Z,72.30
2019-01-26T11:17:22.781Z,72.97
2019-01-26T11:19:54.241Z,57.43
2019-01-26T11:22:25.433Z,70.37
2019-01-26T11:24:56.826Z,67.73
2019-01-26T11:27:28.256Z,68.17
2019-01-26T11:30:00.870Z,75.73
2019-01-26T11:32:32.200Z,69.57
2019-01-26T11:35:03.671Z,69.10
2019-01-26T11:37:34.919Z,72.30
2019-01-26T11:40:17.246Z,72.00
2019-01-26T11:42:48.636Z,64.03
2019-01-26T11:45:30.553Z,69.23
2019-01-26T11:48:03.087Z,70.57
2019-01-26T11:50:39.945Z,60.90
2019-01-26T11:53:11.334Z,59.80
2019-01-26T11:56:01.429Z,63.37
2019-01-26T11:58:32.814Z,51.67
2019-01-26T12:01:21.634Z,61.17
2019-01-26T12:04:01.455Z,65.63
2019-01-26T12:06:39.331Z,59.50
2019-01-26T12:09:12.991Z,68.27
2019-01-26T12:11:44.477Z,50.90
2019-01-26T12:14:18.167Z,63.10
2019-01-26T12:16:49.476Z,52.30
2019-01-26T12:19:22.481Z,61.33
2019-01-26T12:21:54.030Z,50.47
2019-01-26T12:27:23.098Z,53.20
2019-01-26T12:29:55.075Z,38.53
2019-01-26T12:32:26.723Z,51.07
2019-01-26T12:34:57.965Z,49.23
2019-01-26T12:37:29.243Z,44.80
2019-01-26T12:40:00.655Z,39.90
2019-01-26T12:42:32.452Z,42.20
2019-01-26T12:45:22.685Z,42.60
2019-01-26T12:47:54.179Z,39.40
2019-01-26T12:50:25.626Z,42.87
2019-01-26T12:52:56.987Z,41.17
2019-01-26T12:55:28.949Z,34.20
2019-01-26T12:58:06.728Z,40.20
2019-01-26T13:00:38.151Z,35.03
2019-01-26T13:03:09.488Z,35.90
2019-01-26T13:05:43.662Z,25.93
2019-01-26T13:08:15.326Z,25.30
2019-01-26T13:10:59.658Z,25.77
2019-01-26T13:13:31.159Z,21.50
2019-01-26T13:16:02.472Z,21.40
2019-01-26T13:18:34.154Z,23.63
2019-01-26T13:21:11.861Z,24.13
2019-01-26T13:23:43.519Z,27.53
2019-01-26T13:26:14.907Z,23.43
2019-01-26T13:28:46.300Z,24.70
2019-01-26T13:31:18.843Z,21.93
2019-01-26T13:33:50.242Z,25.93
2019-01-26T13:36:24.210Z,19.37
2019-01-26T13:38:54.107Z,19.53
2019-01-26T13:41:24.207Z,20.23
2019-01-26T13:43:54.239Z,22.27
2019-01-26T13:46:24.187Z,22.90
2019-01-26T13:48:56.732Z,18.57
2019-01-26T13:51:26.652Z,24.57
2019-01-26T13:53:56.665Z,22.40
2019-01-26T13:56:26.708Z,21.37
2019-01-26T13:58:56.737Z,20.17
2019-01-26T14:01:26.711Z,18.57
2019-01-26T14:03:56.718Z,21.63
2019-01-26T14:06:26.658Z,24.20
2019-01-26T14:08:56.572Z,22.30
2019-01-26T14:11:31.554Z,19.70
2019-01-26T14:14:01.594Z,24.80
2019-01-26T14:16:31.677Z,20.27
2019-01-26T14:19:01.671Z,17.57
2019-01-26T14:21:31.698Z,13.97
2019-01-26T14:24:01.575Z,16.73
2019-01-26T14:26:31.480Z,19.30
2019-01-26T14:29:09.926Z,13.50
2019-01-26T14:31:45.142Z,14.17
2019-01-26T14:34:15.056Z,17.20
2019-01-26T14:36:45.026Z,14.40
2019-01-26T14:39:15.116Z,20.27
2019-01-26T14:41:45.043Z,21.43
2019-01-26T14:44:15.084Z,18.70
2019-01-26T14:46:44.948Z,17.50
2019-01-26T14:49:20.157Z,17.93
2019-01-26T14:51:50.148Z,17.53
2019-01-26T14:54:20.081Z,19.50
2019-01-26T14:56:50.124Z,13.97
2019-01-26T14:59:20.106Z,13.70
2019-01-26T15:01:49.916Z,13.73
2019-01-26T15:04:46.990Z,18.13
2019-01-26T15:07:16.892Z,19.20
2019-01-26T15:09:46.882Z,18.70
2019-01-26T15:12:16.761Z,17.03
2019-01-26T15:14:46.643Z,18.80
2019-01-26T15:17:16.514Z,18.20
2019-01-26T15:19:46.398Z,13.63
2019-01-26T15:22:16.387Z,18.67
2019-01-26T15:24:46.346Z,18.63
2019-01-26T15:27:16.252Z,17.83
2019-01-26T15:29:48.828Z,20.20
2019-01-26T15:32:18.829Z,16.23
2019-01-26T15:34:50.555Z,20.57
2019-01-26T15:37:20.435Z,17.10
2019-01-26T15:39:50.307Z,22.37
2019-01-26T15:42:20.216Z,20.57
2019-01-26T15:44:50.106Z,18.63
2019-01-26T15:47:20.108Z,20.37
2019-01-26T15:49:52.443Z,18.23
2019-01-26T15:52:22.370Z,18.60
2019-01-26T15:54:52.252Z,20.00
2019-01-26T15:57:22.110Z,18.40
2019-01-26T15:59:53.512Z,20.43
2019-01-26T16:02:23.642Z,18.33
2019-01-26T16:05:12.583Z,19.20
2019-01-26T16:07:45.728Z,25.20
2019-01-26T16:10:18.008Z,22.00
2019-01-26T16:12:47.955Z,20.80
2019-01-26T16:15:22.564Z,17.17
2019-01-26T16:17:52.660Z,15.43
2019-01-26T16:20:23.211Z,22.30
2019-01-26T16:22:53.157Z,18.57
2019-01-26T16:25:23.003Z,15.30
2019-01-26T16:27:53.043Z,20.90
2019-01-26T16:30:28.627Z,18.23
2019-01-26T16:33:01.488Z,18.00
2019-01-26T16:35:31.400Z,16.27
2019-01-26T16:38:01.313Z,19.07
2019-01-26T16:40:34.093Z,18.80
2019-01-26T16:43:04.048Z,17.60
2019-01-26T16:45:37.575Z,17.40
2019-01-26T16:48:11.158Z,19.40
2019-01-26T16:50:40.988Z,18.10
2019-01-26T16:53:10.963Z,18.30
2019-01-26T16:55:40.884Z,18.20
2019-01-26T16:58:11.367Z,17.53
2019-01-26T17:00:52.532Z,15.80
2019-01-26T17:03:22.392Z,18.47
2019-01-26T17:05:52.316Z,20.70
2019-01-26T17:08:22.252Z,21.20
2019-01-26T17:10:52.104Z,20.53
2019-01-26T17:13:22.020Z,18.40
2019-01-26T17:15:52.174Z,18.30
2019-01-26T17:18:24.123Z,16.60
2019-01-26T17:20:54.127Z,18.07
2019-01-26T17:23:24.146Z,17.20
2019-01-26T17:25:54.103Z,15.80
2019-01-26T17:28:24.218Z,16.80
2019-01-26T17:30:54.026Z,19.00
2019-01-26T17:33:23.878Z,15.73
2019-01-26T17:35:53.799Z,16.20
2019-01-26T17:38:23.746Z,13.07
2019-01-26T17:40:54.558Z,17.67
2019-01-26T17:43:24.717Z,16.83
2019-01-26T17:45:54.738Z,15.07
2019-01-26T17:48:27.077Z,16.63
2019-01-26T17:50:56.881Z,14.23
2019-01-26T17:53:27.101Z,16.20
2019-01-26T17:55:57.034Z,21.77
2019-01-26T17:58:30.686Z,16.37
2019-01-26T18:01:01.848Z,16.67
2019-01-26T18:03:33.067Z,18.57
2019-01-26T18:06:02.927Z,16.27
2019-01-26T18:08:33.104Z,18.73
2019-01-26T18:11:02.927Z,13.30
2019-01-26T18:13:32.944Z,15.03
2019-01-26T18:16:02.828Z,16.13
2019-01-26T18:18:32.769Z,14.23
2019-01-26T18:21:03.982Z,19.33
2019-01-26T18:23:34.963Z,17.17
2019-01-26T18:26:05.771Z,16.70
2019-01-26T18:28:35.745Z,19.47
2019-01-26T18:31:05.947Z,16.63
2019-01-26T18:33:35.855Z,15.23
2019-01-26T18:36:08.768Z,17.03
2019-01-26T18:38:38.704Z,13.23
2019-01-26T18:41:08.710Z,13.17
2019-01-26T18:43:38.729Z,14.93
2019-01-26T18:46:08.775Z,17.23
2019-01-26T18:48:38.710Z,15.03
2019-01-26T18:51:08.544Z,13.57
2019-01-26T18:53:38.410Z,12.30
2019-01-26T18:56:08.254Z,11.93
2019-01-26T18:58:39.974Z,18.73
2019-01-26T19:01:12.834Z,14.47
2019-01-26T19:04:06.638Z,15.37
2019-01-26T19:06:38.527Z,15.43
2019-01-26T19:09:11.501Z,18.10
2019-01-26T19:11:41.379Z,14.60
2019-01-26T19:14:11.289Z,12.83
2019-01-26T19:16:41.134Z,14.10
2019-01-26T19:19:10.943Z,17.20
2019-01-26T19:21:41.106Z,14.53
2019-01-26T19:24:10.925Z,16.70
2019-01-26T19:26:40.796Z,16.70
2019-01-26T19:29:12.523Z,15.10
2019-01-26T19:31:42.377Z,13.80
2019-01-26T19:34:12.428Z,13.03
2019-01-26T19:36:42.254Z,11.57
2019-01-26T19:39:12.203Z,13.20
2019-01-26T19:41:42.034Z,15.70
2019-01-26T19:44:11.896Z,13.33
2019-01-26T19:46:41.758Z,14.40
2019-01-26T19:49:11.681Z,10.53
2019-01-26T19:51:41.627Z,12.40
2019-01-26T19:54:11.632Z,10.97
2019-01-26T19:56:42.787Z,8.47
2019-01-26T19:59:12.588Z,11.77
2019-01-26T20:01:42.501Z,10.20
2019-01-26T20:04:12.325Z,12.13
2019-01-26T20:06:42.219Z,14.17
2019-01-26T20:09:12.235Z,14.30
2019-01-26T20:11:42.214Z,10.93
2019-01-26T20:14:12.040Z,12.23
2019-01-26T20:16:41.994Z,10.03
2019-01-26T20:19:11.902Z,10.90
2019-01-26T20:21:41.694Z,11.30
2019-01-26T20:24:12.525Z,12.97
2019-01-26T20:26:42.533Z,11.50
2019-01-26T20:29:13.803Z,12.00
2019-01-26T20:31:43.727Z,9.40
2019-01-26T20:34:13.584Z,12.40
2019-01-26T20:36:43.414Z,9.93
2019-01-26T20:39:13.302Z,8.63
2019-01-26T20:41:43.331Z,9.57
2019-01-26T20:44:13.184Z,10.83
2019-01-26T20:46:43.064Z,12.57
2019-01-26T20:49:13.266Z,10.50
2019-01-26T20:51:43.194Z,10.17
2019-01-26T20:54:13.022Z,9.90
2019-01-26T20:56:42.870Z,8.10
2019-01-26T20:59:13.025Z,8.47
2019-01-26T21:01:43.205Z,6.70
2019-01-26T21:04:13.137Z,9.80
2019-01-26T21:06:43.938Z,8.50
2019-01-26T21:09:13.798Z,8.83
2019-01-26T21:11:43.706Z,7.63
2019-01-26T21:14:13.930Z,6.43
2019-01-26T21:16:43.731Z,5.77
2019-01-26T21:19:13.677Z,8.60
2019-01-26T21:21:43.529Z,6.50
2019-01-26T21:24:13.561Z,7.57
2019-01-26T21:26:43.522Z,7.20
2019-01-26T21:29:19.692Z,9.80
2019-01-26T21:31:49.725Z,11.17
2019-01-26T21:34:22.598Z,11.80
2019-01-26T21:36:52.508Z,11.10
2019-01-26T21:39:22.350Z,14.03
2019-01-26T21:41:52.240Z,21.97
2019-01-26T21:44:22.122Z,13.33
2019-01-26T21:46:52.331Z,15.23
2019-01-26T21:49:22.458Z,14.50
2019-01-26T21:51:52.280Z,13.77
2019-01-26T21:54:22.250Z,13.07
2019-01-26T21:56:52.083Z,9.40
2019-01-26T21:59:21.903Z,12.50
2019-01-26T22:01:53.366Z,11.37
2019-01-26T22:04:23.318Z,9.10
2019-01-26T22:06:53.273Z,10.20
2019-01-26T22:09:23.212Z,9.30
2019-01-26T22:11:53.118Z,8.03
2019-01-26T22:14:23.135Z,8.30
2019-01-26T22:16:53.089Z,10.90
2019-01-26T22:19:23.085Z,9.93
2019-01-26T22:21:52.978Z,12.43
2019-01-26T22:24:22.849Z,10.20
2019-01-26T22:26:52.795Z,7.90
2019-01-26T22:29:22.605Z,7.13
2019-01-26T22:31:52.477Z,5.83
2019-01-26T22:34:22.347Z,7.50
2019-01-26T22:36:52.167Z,9.10
2019-01-26T22:39:22.056Z,13.53
2019-01-26T22:41:51.966Z,10.63
2019-01-26T22:44:21.962Z,6.97
2019-01-26T22:46:51.784Z,10.63
2019-01-26T22:49:21.668Z,4.77
2019-01-26T22:51:53.391Z,4.30
2019-01-26T22:54:23.031Z,4.50
2019-01-26T22:56:53.317Z,8.83
2019-01-26T22:59:23.189Z,6.57
2019-01-26T23:01:53.109Z,10.53
2019-01-26T23:04:59.966Z,5.70
2019-01-26T23:07:54.607Z,8.60
2019-01-26T23:11:02.515Z,6.40
2019-01-26T23:14:15.865Z,6.60
2019-01-26T23:17:27.513Z,6.20
2019-01-26T23:20:07.621Z,4.90
2019-01-26T23:23:29.264Z,7.07
2019-01-26T23:26:30.215Z,5.37
2019-01-26T23:29:25.101Z,5.73
2019-01-26T23:31:54.944Z,5.00
2019-01-26T23:34:24.865Z,3.50
2019-01-26T23:36:55.122Z,5.60
2019-01-26T23:39:24.957Z,5.00
2019-01-26T23:41:54.809Z,4.03
2019-01-26T23:44:24.704Z,3.00
2019-01-26T23:46:54.565Z,4.10
2019-01-26T23:49:24.427Z,3.50
2019-01-26T23:51:54.260Z,3.57
2019-01-26T23:54:24.084Z,4.43
2019-01-26T23:56:54.919Z,2.23
2019-01-26T23:59:24.796Z,3.73
